Laplata, MD

3:43 PM EDT on May 25, 2015 (GMT -0400)
Locust Grove Estates (sec 5) | | Change Station
CLOSE
Current Station
Personal Weather Station
Location: Port Tobacco, MD
Elevation: 184 ft
Nearby Weather Stations

Elev 184 ft 38.50 °N, 77.00 °W | Updated 8 minutes ago

Clear
Clear
84.6 °F
Feels Like 85 °F
N
1.6
Wind Variable Wind from ESE

Today
High -- | Low -- °F
--% Chance of Precip.
Yesterday
High -- | Low -- °F
Precip. -- in
5:49 AM 8:21 PM
Waxing Crescent, 51% visible
Pressure 30.24 in
Visibility 10.0 miles
Clouds Few 5500 ft
Heat Index 85 °F
Dew Point 62 °F
Humidity 47%
Rainfall 0.00 in
Snow Depth Not available.
UV 9 out of 12
Pollen 9.30 out of 12
Air Quality Not available.
Flu Activity Sporadic
METAR KNYG 251856Z AUTO 20016KT 10SM FEW055 27/16 A3023 RMK AO2 SLP238 T02670156

More Conditions Fewer Conditions

Pressure 30.24 in
Visibility 10.0 miles
Clouds Few 5500 ft
Heat Index 85 °F
Dew Point 62 °F
Humidity 47%
Rainfall 0.00 in
Snow Depth Not available.
UV 9 out of 12
Pollen 9.30 out of 12
Air Quality Not available.
Flu Activity Sporadic
METAR KNYG 251856Z AUTO 20016KT 10SM FEW055 27/16 A3023 RMK AO2 SLP238 T02670156

More Conditions Fewer Conditions

10-Day Weather Forecast

Almanac

Astronomy

May. 25, 2015 Rise Set
Actual Time
Civil Twilight
Nautical Twilight
Astronomical Twilight
Moon
Length of Visible Light
Length of Day
Tomorrow will be .
, % of the Moon is Illuminated

Today's Extremes

State Highs State Lows

Community

WunderPhotos

Upload Photos

1,824,102 photos uploaded!

WunderBlogs® & News

Nearby

Air Quality

  Air Quality AQ Index Pollutant
Not available.

Snow Depth

Station Depth Elevation

Earthquake Activity

City Distance Mag. Time & Date
Minimum magnitude displayed is 2.5.

Coastal Water Temperatures

Place Temperature

Stations

Nearby Weather Stations

Station Location Temp. Windchill Dew Point Humidity Wind Precip. Elev Updated Type